createdAt,value
2022-09-23T00:01:30.768Z,101674.84
2022-09-23T00:03:32.924Z,101668.53
2022-09-23T00:05:34.740Z,101675.00
2022-09-23T00:07:36.227Z,101667.25
2022-09-23T00:09:38.846Z,101662.41
2022-09-23T00:11:40.307Z,101666.06
2022-09-23T00:13:43.981Z,101654.78
2022-09-23T00:15:45.515Z,101658.28
2022-09-23T00:17:47.017Z,101653.91
2022-09-23T00:19:48.463Z,101652.13
2022-09-23T00:21:49.910Z,101651.28
2022-09-23T00:23:51.348Z,101642.59
2022-09-23T00:25:57.901Z,101649.59
2022-09-23T00:27:59.379Z,101646.03
2022-09-23T00:30:01.049Z,101654.81
2022-09-23T00:32:02.711Z,101639.72
2022-09-23T00:34:04.232Z,101650.25
2022-09-23T00:36:06.507Z,101639.53
2022-09-23T00:38:08.042Z,101641.28
2022-09-23T00:40:09.791Z,101635.09
2022-09-23T00:42:14.751Z,101634.97
2022-09-23T00:44:42.527Z,101635.97
2022-09-23T00:46:43.969Z,101628.16
2022-09-23T00:48:45.810Z,101634.41
2022-09-23T00:50:51.029Z,101635.25
2022-09-23T00:52:56.319Z,101634.47
2022-09-23T00:55:00.537Z,101627.56
2022-09-23T00:57:02.539Z,101626.72
2022-09-23T00:59:06.896Z,101626.69
2022-09-23T01:01:08.778Z,101629.19
2022-09-23T01:03:10.313Z,101632.69
2022-09-23T01:05:11.609Z,101630.06
2022-09-23T01:07:13.071Z,101621.34
2022-09-23T01:09:14.551Z,101617.13
2022-09-23T01:11:30.211Z,101622.34
2022-09-23T01:13:39.830Z,101624.16
2022-09-23T01:15:49.290Z,101610.69
2022-09-23T01:17:57.828Z,101619.56
2022-09-23T01:20:29.935Z,101610.91
2022-09-23T01:22:39.216Z,101608.44
2022-09-23T01:25:09.954Z,101608.44
2022-09-23T01:27:23.028Z,101598.59
2022-09-23T01:29:53.795Z,101610.91
2022-09-23T01:32:00.202Z,101608.34
2022-09-23T01:34:09.466Z,101607.78
2022-09-23T01:36:21.988Z,101604.31
2022-09-23T01:38:35.709Z,101599.91
2022-09-23T01:40:48.956Z,101598.09
2022-09-23T01:42:55.775Z,101603.44
2022-09-23T01:45:01.657Z,101610.22
2022-09-23T01:47:08.104Z,101601.66
2022-09-23T01:49:16.494Z,101597.25
2022-09-23T01:51:23.337Z,101587.78
2022-09-23T01:53:31.487Z,101598.34
2022-09-23T01:55:38.450Z,101589.53
2022-09-23T01:57:44.432Z,101589.81
2022-09-23T01:59:50.126Z,101588.19
2022-09-23T02:01:56.859Z,101592.41
2022-09-23T02:04:05.951Z,101579.31
2022-09-23T02:06:12.894Z,101590.78
2022-09-23T02:08:19.372Z,101584.53
2022-09-23T02:10:25.700Z,101585.91
2022-09-23T02:12:29.660Z,101584.34
2022-09-23T02:14:37.010Z,101584.34
2022-09-23T02:16:43.514Z,101578.09
2022-09-23T02:18:51.564Z,101579.88
2022-09-23T02:21:00.016Z,101575.41
2022-09-23T02:23:05.567Z,101564.44
2022-09-23T02:25:08.975Z,101570.66
2022-09-23T02:27:18.244Z,101564.44
2022-09-23T02:29:22.152Z,101567.09
2022-09-23T02:31:32.885Z,101561.25
2022-09-23T02:33:39.687Z,101557.91
2022-09-23T02:35:48.752Z,101558.13
2022-09-23T02:38:01.632Z,101554.50
2022-09-23T02:40:14.498Z,101553.22
2022-09-23T02:42:21.897Z,101547.09
2022-09-23T02:44:23.785Z,101552.38
2022-09-23T02:46:26.099Z,101549.78
2022-09-23T02:48:33.897Z,101541.34
2022-09-23T02:50:36.616Z,101546.84
2022-09-23T02:52:38.218Z,101540.59
2022-09-23T02:54:41.157Z,101534.38
2022-09-23T02:56:43.096Z,101542.19
2022-09-23T02:58:44.835Z,101540.44
2022-09-23T03:00:59.019Z,101539.47
2022-09-23T03:03:06.314Z,101535.03
2022-09-23T03:05:18.978Z,101530.44
2022-09-23T03:07:30.268Z,101539.22
2022-09-23T03:09:35.486Z,101528.63
2022-09-23T03:11:41.589Z,101527.50
2022-09-23T03:14:01.208Z,101523.03
2022-09-23T03:16:12.360Z,101526.97
2022-09-23T03:18:20.547Z,101526.88
2022-09-23T03:20:28.215Z,101518.16
2022-09-23T03:22:35.120Z,101518.44
2022-09-23T03:24:39.442Z,101515.06
2022-09-23T03:26:46.549Z,101515.84
2022-09-23T03:28:49.653Z,101514.19
2022-09-23T03:30:53.240Z,101524.00
2022-09-23T03:32:58.242Z,101510.88
2022-09-23T03:35:01.888Z,101507.56
2022-09-23T03:37:10.653Z,101513.66
2022-09-23T03:39:20.020Z,101511.97
2022-09-23T03:41:28.032Z,101511.13
2022-09-23T03:43:36.519Z,101506.53
2022-09-23T03:45:40.462Z,101497.84
2022-09-23T03:47:41.972Z,101505.75
2022-09-23T03:49:46.380Z,101505.66
2022-09-23T03:51:47.832Z,101506.44
2022-09-23T03:53:49.588Z,101499.50
2022-09-23T03:55:51.052Z,101499.25
2022-09-23T03:57:52.618Z,101493.97
2022-09-23T03:59:55.261Z,101499.25
2022-09-23T04:01:57.526Z,101502.56
2022-09-23T04:03:59.068Z,101498.25
2022-09-23T04:06:00.363Z,101501.84
2022-09-23T04:08:02.075Z,101494.00
2022-09-23T04:10:04.141Z,101490.47
2022-09-23T04:12:06.124Z,101493.97
2022-09-23T04:14:07.848Z,101494.94
2022-09-23T04:16:10.677Z,101489.53
2022-09-23T04:18:12.154Z,101489.66
2022-09-23T04:20:13.695Z,101485.97
2022-09-23T04:22:15.000Z,101483.94
2022-09-23T04:24:17.197Z,101487.63
2022-09-23T04:26:18.741Z,101484.59
2022-09-23T04:28:20.210Z,101487.47
2022-09-23T04:30:21.667Z,101482.41
2022-09-23T04:32:24.632Z,101477.16
2022-09-23T04:34:26.148Z,101477.88
2022-09-23T04:36:27.444Z,101479.91
2022-09-23T04:38:28.980Z,101477.22
2022-09-23T04:40:30.301Z,101478.97
2022-09-23T04:42:31.809Z,101475.63
2022-09-23T04:44:33.281Z,101475.72
2022-09-23T04:46:35.001Z,101480.91
2022-09-23T04:48:39.274Z,101476.09
2022-09-23T04:50:40.814Z,101478.31
2022-09-23T04:52:42.094Z,101481.97
2022-09-23T04:54:43.582Z,101479.44
2022-09-23T04:56:45.067Z,101478.56
2022-09-23T04:58:47.115Z,101475.00
2022-09-23T05:00:48.731Z,101475.66
2022-09-23T05:02:50.953Z,101477.44
2022-09-23T05:04:53.797Z,101477.75
2022-09-23T05:06:57.476Z,101467.91
2022-09-23T05:09:05.066Z,101476.75
2022-09-23T05:11:06.975Z,101469.91
2022-09-23T05:13:08.732Z,101474.47
2022-09-23T05:15:10.346Z,101473.59
2022-09-23T05:17:11.675Z,101480.63
2022-09-23T05:19:13.192Z,101470.59
2022-09-23T05:21:17.176Z,101476.25
2022-09-23T05:23:18.607Z,101480.13
2022-09-23T05:25:20.085Z,101476.06
2022-09-23T05:27:21.840Z,101480.06
2022-09-23T05:29:23.307Z,101479.31
2022-09-23T05:31:26.563Z,101480.06
2022-09-23T05:33:28.125Z,101477.69
2022-09-23T05:35:29.408Z,101469.59
2022-09-23T05:37:32.306Z,101467.53
2022-09-23T05:39:33.860Z,101467.28
2022-09-23T05:41:35.356Z,101472.38
2022-09-23T05:43:37.130Z,101467.00
2022-09-23T05:45:38.614Z,101460.47
2022-09-23T05:47:39.899Z,101461.19
2022-09-23T05:49:58.720Z,101466.72
2022-09-23T05:52:01.704Z,101466.38
2022-09-23T05:54:05.538Z,101461.75
2022-09-23T05:56:07.775Z,101464.56
2022-09-23T05:58:09.444Z,101462.81
2022-09-23T06:00:11.790Z,101464.13
2022-09-23T06:02:13.310Z,101464.13
2022-09-23T06:04:14.681Z,101458.16
2022-09-23T06:06:17.900Z,101460.66
2022-09-23T06:08:19.539Z,101466.06
2022-09-23T06:10:22.345Z,101465.75
2022-09-23T06:12:23.921Z,101468.63
2022-09-23T06:14:25.332Z,101468.84
2022-09-23T06:16:27.036Z,101467.50
2022-09-23T06:18:28.504Z,101463.59
2022-09-23T06:20:29.994Z,101472.94
2022-09-23T06:22:31.307Z,101469.38
2022-09-23T06:24:32.753Z,101471.63
2022-09-23T06:26:36.075Z,101476.41
2022-09-23T06:28:39.270Z,101469.22
2022-09-23T06:30:40.709Z,101465.31
2022-09-23T06:32:42.163Z,101467.78
2022-09-23T06:34:51.128Z,101471.09
2022-09-23T06:36:53.296Z,101475.47
2022-09-23T06:38:54.616Z,101469.75
2022-09-23T06:40:57.889Z,101457.31
2022-09-23T06:43:01.806Z,101471.00
2022-09-23T06:45:03.572Z,101461.97
2022-09-23T06:47:05.239Z,101471.91
2022-09-23T06:49:06.917Z,101471.38
2022-09-23T06:51:11.541Z,101472.31
2022-09-23T06:53:13.037Z,101473.00
2022-09-23T06:55:14.445Z,101466.50
2022-09-23T06:57:15.902Z,101469.53
2022-09-23T06:59:18.608Z,101473.47
2022-09-23T07:01:20.263Z,101473.16
2022-09-23T07:03:21.774Z,101474.50
2022-09-23T07:05:23.438Z,101467.28
2022-09-23T07:07:24.871Z,101474.56
2022-09-23T07:09:26.240Z,101461.91
2022-09-23T07:11:27.710Z,101470.22
2022-09-23T07:13:30.017Z,101475.88
2022-09-23T07:15:32.913Z,101480.28
2022-09-23T07:17:34.549Z,101479.91
2022-09-23T07:19:36.061Z,101487.84
2022-09-23T07:21:38.668Z,101486.00
2022-09-23T07:23:40.006Z,101481.81
2022-09-23T07:25:41.421Z,101480.41
2022-09-23T07:27:42.834Z,101485.34
2022-09-23T07:29:48.799Z,101494.34
2022-09-23T07:31:52.595Z,101481.41
2022-09-23T07:33:56.645Z,101483.88
2022-09-23T07:35:58.181Z,101488.09
2022-09-23T07:37:59.788Z,101490.53
2022-09-23T07:40:01.628Z,101488.78
2022-09-23T07:42:03.569Z,101478.22
2022-09-23T07:44:05.430Z,101469.59
2022-09-23T07:46:09.557Z,101471.19
2022-09-23T07:48:12.485Z,101476.22
2022-09-23T07:50:13.912Z,101476.91
2022-09-23T07:52:15.295Z,101471.75
2022-09-23T07:54:16.976Z,101469.69
2022-09-23T07:56:19.541Z,101462.16
2022-09-23T07:58:21.304Z,101479.13
2022-09-23T08:00:22.861Z,101478.78
2022-09-23T08:02:24.447Z,101472.66
2022-09-23T08:04:31.055Z,101475.63
2022-09-23T08:06:33.613Z,101471.53
2022-09-23T08:08:35.616Z,101467.75
2022-09-23T08:10:37.068Z,101468.63
2022-09-23T08:12:38.643Z,101472.94
2022-09-23T08:14:40.097Z,101464.75
2022-09-23T08:16:41.410Z,101459.66
2022-09-23T08:18:44.081Z,101463.63
2022-09-23T08:20:47.690Z,101461.38
2022-09-23T08:22:50.300Z,101457.22
2022-09-23T08:24:52.591Z,101458.97
2022-09-23T08:26:55.965Z,101457.41
2022-09-23T08:28:57.249Z,101465.34
2022-09-23T08:30:59.437Z,101453.25
2022-09-23T08:33:01.248Z,101457.56
2022-09-23T08:35:02.756Z,101458.53
2022-09-23T08:37:09.432Z,101447.97
2022-09-23T08:39:13.877Z,101454.72
2022-09-23T08:41:24.497Z,101454.25
2022-09-23T08:43:30.929Z,101451.91
2022-09-23T08:45:35.430Z,101443.72
2022-09-23T08:47:44.210Z,101444.16
2022-09-23T08:49:53.876Z,101437.03
2022-09-23T08:51:56.346Z,101439.47
2022-09-23T08:53:59.934Z,101437.44
2022-09-23T08:56:05.753Z,101429.47
2022-09-23T08:58:27.114Z,101433.44
2022-09-23T09:00:36.997Z,101435.34
2022-09-23T09:02:38.525Z,101432.84
2022-09-23T09:04:42.786Z,101428.91
2022-09-23T09:06:53.562Z,101426.66
2022-09-23T09:09:00.413Z,101426.78
2022-09-23T09:11:03.061Z,101430.63
2022-09-23T09:13:09.374Z,101427.16
2022-09-23T09:15:13.949Z,101432.53
2022-09-23T09:17:21.731Z,101431.56
2022-09-23T09:19:40.905Z,101431.59
2022-09-23T09:21:45.105Z,101429.28
2022-09-23T09:23:54.337Z,101432.53
2022-09-23T09:26:00.855Z,101429.88
2022-09-23T09:28:08.755Z,101434.47
2022-09-23T09:30:12.556Z,101425.44
2022-09-23T09:32:22.685Z,101422.56
2022-09-23T09:34:29.034Z,101421.06
2022-09-23T09:36:38.159Z,101417.78
2022-09-23T09:38:39.616Z,101413.84
2022-09-23T09:40:45.933Z,101412.38
2022-09-23T09:42:50.283Z,101406.00
2022-09-23T09:44:56.467Z,101405.78
2022-09-23T09:47:14.486Z,101398.06
2022-09-23T09:49:26.024Z,101399.97
2022-09-23T09:51:28.577Z,101394.66
2022-09-23T09:53:31.585Z,101388.41
2022-09-23T09:55:33.040Z,101385.22
2022-09-23T09:57:39.281Z,101380.03
2022-09-23T09:59:42.482Z,101375.75
2022-09-23T10:01:44.933Z,101368.41
2022-09-23T10:03:47.432Z,101370.78
2022-09-23T10:05:50.749Z,101370.72
2022-09-23T10:07:52.683Z,101370.41
2022-09-23T10:09:58.354Z,101371.09
2022-09-23T10:12:11.851Z,101366.13
2022-09-23T10:14:15.743Z,101371.09
2022-09-23T10:16:18.638Z,101368.38
2022-09-23T10:18:26.434Z,101368.03
2022-09-23T10:20:33.965Z,101364.22
2022-09-23T10:22:39.199Z,101367.06
2022-09-23T10:24:47.104Z,101363.63
2022-09-23T10:26:55.688Z,101363.09
2022-09-23T10:28:57.110Z,101363.09
2022-09-23T10:31:06.725Z,101357.94
2022-09-23T10:33:26.574Z,101362.97
2022-09-23T10:35:28.199Z,101360.41
2022-09-23T10:37:36.337Z,101357.19
2022-09-23T10:39:38.110Z,101360.63
2022-09-23T10:41:45.870Z,101358.84
2022-09-23T10:44:00.418Z,101354.78
2022-09-23T10:46:05.337Z,101358.22
2022-09-23T10:48:20.745Z,101356.72
2022-09-23T10:50:35.330Z,101361.25
2022-09-23T10:52:48.928Z,101351.22
2022-09-23T10:55:04.491Z,101349.63
2022-09-23T10:57:17.669Z,101345.84
2022-09-23T10:59:45.249Z,101352.41
2022-09-23T11:01:55.026Z,101341.13
2022-09-23T11:04:28.295Z,101345.53
2022-09-23T11:06:42.385Z,101339.28
2022-09-23T11:08:58.958Z,101339.38
2022-09-23T11:11:09.603Z,101332.97
2022-09-23T11:13:23.407Z,101326.16
2022-09-23T11:15:35.591Z,101324.19
2022-09-23T11:17:55.840Z,101324.28
2022-09-23T11:20:03.414Z,101321.03
2022-09-23T11:22:15.632Z,101307.44
2022-09-23T11:24:35.400Z,101314.09
2022-09-23T11:26:45.082Z,101311.72
2022-09-23T11:29:03.093Z,101308.03
2022-09-23T11:31:17.257Z,101305.22
2022-09-23T11:33:35.333Z,101295.31
2022-09-23T11:35:45.040Z,101300.75
2022-09-23T11:37:51.092Z,101294.69
2022-09-23T11:39:58.960Z,101294.31
2022-09-23T11:42:02.800Z,101287.22
2022-09-23T11:44:11.670Z,101283.72
2022-09-23T11:46:23.548Z,101277.34
2022-09-23T11:48:30.471Z,101277.56
2022-09-23T11:50:36.418Z,101275.69
2022-09-23T11:52:44.863Z,101272.34
2022-09-23T11:54:51.465Z,101273.50
2022-09-23T11:56:58.645Z,101263.19
2022-09-23T11:59:10.284Z,101263.66
2022-09-23T12:01:18.844Z,101269.84
2022-09-23T12:03:36.901Z,101257.94
2022-09-23T12:05:47.316Z,101266.53
2022-09-23T12:07:55.528Z,101248.41
2022-09-23T12:10:02.019Z,101251.03
2022-09-23T12:12:12.458Z,101247.94
2022-09-23T12:14:22.109Z,101257.19
2022-09-23T12:16:34.981Z,101254.06
2022-09-23T12:18:50.478Z,101246.13
2022-09-23T12:23:49.115Z,101242.25
2022-09-23T12:25:54.899Z,101249.00
2022-09-23T12:28:02.593Z,101241.19
2022-09-23T12:30:12.337Z,101238.97
2022-09-23T12:32:17.615Z,101231.59
2022-09-23T12:34:24.720Z,101231.03
2022-09-23T12:36:29.765Z,101229.97
2022-09-23T12:38:34.608Z,101229.38
2022-09-23T12:40:38.166Z,101222.00
2022-09-23T12:42:44.245Z,101213.34
2022-09-23T12:44:48.055Z,101214.63
2022-09-23T12:47:27.919Z,101210.03
2022-09-23T12:49:36.794Z,101217.94
2022-09-23T12:51:38.245Z,101219.41
2022-09-23T12:54:18.936Z,101216.22
2022-09-23T12:56:24.486Z,101214.16
2022-09-23T12:58:37.933Z,101213.13
2022-09-23T13:00:39.407Z,101208.91
2022-09-23T13:02:43.522Z,101204.97
2022-09-23T13:04:56.424Z,101208.41
2022-09-23T13:07:06.062Z,101200.84
2022-09-23T13:09:13.123Z,101195.44
2022-09-23T13:11:21.679Z,101195.03
2022-09-23T13:13:28.367Z,101181.56
2022-09-23T13:15:31.819Z,101188.16
2022-09-23T13:17:37.271Z,101184.00
2022-09-23T13:19:44.995Z,101183.66
2022-09-23T13:22:05.059Z,101185.16
2022-09-23T13:24:20.772Z,101184.25
2022-09-23T13:26:22.843Z,101176.31
2022-09-23T13:28:33.755Z,101177.72
2022-09-23T13:30:35.297Z,101174.22
2022-09-23T13:32:41.552Z,101173.72
2022-09-23T13:34:45.967Z,101173.13
2022-09-23T13:36:48.467Z,101165.47
2022-09-23T13:38:49.964Z,101165.03
2022-09-23T13:40:53.586Z,101153.41
2022-09-23T13:43:00.168Z,101151.94
2022-09-23T13:45:03.314Z,101151.44
2022-09-23T13:47:04.940Z,101157.38
2022-09-23T13:49:18.511Z,101145.25
2022-09-23T13:51:23.443Z,101142.56
2022-09-23T13:53:28.937Z,101131.00
2022-09-23T13:55:32.366Z,101137.00
2022-09-23T13:57:34.772Z,101131.38
2022-09-23T13:59:38.211Z,101125.13
2022-09-23T14:01:41.184Z,101127.28
2022-09-23T14:03:42.609Z,101128.97
2022-09-23T14:05:45.090Z,101125.22
2022-09-23T14:07:46.790Z,101127.16
2022-09-23T14:09:51.117Z,101124.09
2022-09-23T14:11:54.069Z,101128.25
2022-09-23T14:13:56.497Z,101117.25
2022-09-23T14:15:59.619Z,101130.09
2022-09-23T14:18:06.418Z,101118.19
2022-09-23T14:20:14.245Z,101110.00
2022-09-23T14:22:24.792Z,101120.41
2022-09-23T14:24:33.450Z,101116.00
2022-09-23T14:26:35.013Z,101115.53
2022-09-23T14:28:36.862Z,101108.69
2022-09-23T14:30:38.581Z,101108.53
2022-09-23T14:32:40.293Z,101105.47
2022-09-23T14:34:45.463Z,101097.22
2022-09-23T14:36:47.211Z,101106.25
2022-09-23T14:38:48.716Z,101092.28
2022-09-23T14:40:51.856Z,101089.50
2022-09-23T14:42:59.168Z,101079.66
2022-09-23T14:45:00.627Z,101094.34
2022-09-23T14:47:02.208Z,101096.28
2022-09-23T14:49:06.635Z,101091.91
2022-09-23T14:51:14.630Z,101079.03
2022-09-23T14:53:39.291Z,101092.19
2022-09-23T14:55:40.827Z,101069.19
2022-09-23T14:57:43.199Z,101093.03
2022-09-23T14:59:50.969Z,101087.25
2022-09-23T15:01:52.656Z,101090.47
2022-09-23T15:03:55.678Z,101079.88
2022-09-23T15:06:05.054Z,101083.16
2022-09-23T15:08:14.052Z,101086.94
2022-09-23T15:10:22.853Z,101087.16
2022-09-23T15:12:25.226Z,101080.81
2022-09-23T15:14:38.667Z,101087.66
2022-09-23T15:16:40.998Z,101084.13
2022-09-23T15:18:44.606Z,101068.69
2022-09-23T15:20:49.839Z,101074.06
2022-09-23T15:22:53.355Z,101076.09
2022-09-23T15:25:11.198Z,101075.56
2022-09-23T15:27:28.869Z,101078.00
2022-09-23T15:29:30.349Z,101072.69
2022-09-23T15:31:31.805Z,101072.22
2022-09-23T15:33:33.489Z,101074.56
2022-09-23T15:35:36.270Z,101071.75
2022-09-23T15:37:37.908Z,101062.16
2022-09-23T15:39:39.433Z,101062.94
2022-09-23T15:41:42.224Z,101066.09
2022-09-23T15:43:43.770Z,101063.09
2022-09-23T15:45:47.332Z,101066.97
2022-09-23T15:47:50.429Z,101071.59
2022-09-23T15:49:51.957Z,101066.31
2022-09-23T15:51:53.508Z,101059.38
2022-09-23T15:53:55.313Z,101051.63
2022-09-23T15:55:56.929Z,101062.91
2022-09-23T15:58:00.037Z,101058.63
2022-09-23T16:00:01.734Z,101062.28
2022-09-23T16:02:07.716Z,101052.94
2022-09-23T16:04:09.870Z,101057.34
2022-09-23T16:06:12.296Z,101049.63
2022-09-23T16:08:14.607Z,101050.72
2022-09-23T16:10:16.341Z,101060.16
2022-09-23T16:12:17.943Z,101063.41
2022-09-23T16:14:20.780Z,101056.53
2022-09-23T16:16:22.454Z,101052.69
2022-09-23T16:18:23.933Z,101064.94
2022-09-23T16:20:26.428Z,101063.88
2022-09-23T16:22:27.966Z,101060.44
2022-09-23T16:24:29.603Z,101057.31
2022-09-23T16:26:33.910Z,101050.97
2022-09-23T16:28:35.511Z,101043.88
2022-09-23T16:30:38.335Z,101048.41
2022-09-23T16:32:39.780Z,101043.66
2022-09-23T16:34:41.444Z,101045.59
2022-09-23T16:36:43.429Z,101047.31
2022-09-23T16:38:44.906Z,101051.41
2022-09-23T16:40:47.423Z,101046.38
2022-09-23T16:42:50.129Z,101047.13
2022-09-23T16:44:51.646Z,101048.75
2022-09-23T16:46:54.491Z,101044.66
2022-09-23T16:48:56.085Z,101045.63
2022-09-23T16:50:57.575Z,101044.03
2022-09-23T16:52:59.124Z,101045.69
2022-09-23T16:55:00.616Z,101045.44
2022-09-23T16:57:02.123Z,101043.06
2022-09-23T16:59:04.142Z,101046.44
2022-09-23T17:01:07.352Z,101035.06
2022-09-23T17:03:12.392Z,101036.75
2022-09-23T17:05:13.955Z,101038.03
2022-09-23T17:07:15.396Z,101043.28
2022-09-23T17:09:17.823Z,101038.31
2022-09-23T17:11:20.143Z,101036.44
2022-09-23T17:13:21.701Z,101033.41
2022-09-23T17:15:23.297Z,101037.25
2022-09-23T17:17:24.868Z,101030.78
2022-09-23T17:19:27.642Z,101033.00
2022-09-23T17:21:29.164Z,101029.88
2022-09-23T17:23:32.068Z,101028.34
2022-09-23T17:25:34.017Z,101019.34
2022-09-23T17:27:35.585Z,101021.06
2022-09-23T17:29:37.061Z,101024.97
2022-09-23T17:31:38.624Z,101027.22
2022-09-23T17:33:40.157Z,101034.22
2022-09-23T17:35:43.088Z,101028.50
2022-09-23T17:37:44.661Z,101021.97
2022-09-23T17:39:46.141Z,101026.09
2022-09-23T17:41:47.654Z,101031.84
2022-09-23T17:43:54.117Z,101020.56
2022-09-23T17:45:57.186Z,101018.47
2022-09-23T17:47:58.711Z,101022.66
2022-09-23T17:50:00.312Z,101024.78
2022-09-23T17:52:03.886Z,101027.94
2022-09-23T17:54:05.664Z,101025.53
2022-09-23T17:56:11.349Z,101023.81
2022-09-23T17:58:12.820Z,101029.38
2022-09-23T18:00:14.606Z,101028.59
2022-09-23T18:02:16.175Z,101034.44
2022-09-23T18:04:17.690Z,101039.88
2022-09-23T18:06:21.172Z,101029.75
2022-09-23T18:08:23.984Z,101039.31
2022-09-23T18:10:25.433Z,101048.09
2022-09-23T18:12:26.994Z,101037.97
2022-09-23T18:14:28.554Z,101046.94
2022-09-23T18:16:33.972Z,101042.53
2022-09-23T18:18:35.547Z,101038.72
2022-09-23T18:20:37.018Z,101034.13
2022-09-23T18:22:38.606Z,101034.53
2022-09-23T18:24:41.508Z,101029.75
2022-09-23T18:26:43.132Z,101024.41
2022-09-23T18:28:44.631Z,101027.25
2022-09-23T18:30:52.733Z,101031.66
2022-09-23T18:32:54.198Z,101033.56
2022-09-23T18:34:55.738Z,101037.00
2022-09-23T18:36:57.455Z,101031.84
2022-09-23T18:38:59.201Z,101028.78
2022-09-23T18:41:02.141Z,101023.63
2022-09-23T18:43:03.756Z,101035.56
2022-09-23T18:45:07.229Z,101032.97
2022-09-23T18:47:08.722Z,101031.59
2022-09-23T18:49:10.219Z,101030.25
2022-09-23T18:51:13.548Z,101033.88
2022-09-23T18:53:15.043Z,101029.31
2022-09-23T18:55:17.527Z,101030.44
2022-09-23T18:57:20.364Z,101032.16
2022-09-23T18:59:24.251Z,101025.47
2022-09-23T19:01:26.137Z,101028.91
2022-09-23T19:03:27.727Z,101025.81
2022-09-23T19:05:29.366Z,101023.91
2022-09-23T19:07:31.170Z,101028.91
2022-09-23T19:09:32.666Z,101029.50
2022-09-23T19:11:34.866Z,101024.94
2022-09-23T19:13:37.715Z,101022.72
2022-09-23T19:15:39.188Z,101026.34
2022-09-23T19:17:40.655Z,101020.50
2022-09-23T19:19:42.186Z,101023.44
2022-09-23T19:21:43.793Z,101018.28
2022-09-23T19:23:46.825Z,101023.03
2022-09-23T19:25:48.607Z,101020.19
2022-09-23T19:27:50.057Z,101017.13
2022-09-23T19:29:52.880Z,101018.34
2022-09-23T19:31:54.364Z,101013.75
2022-09-23T19:33:58.687Z,101013.44
2022-09-23T19:36:00.502Z,101010.00
2022-09-23T19:38:02.064Z,101008.34
2022-09-23T19:40:04.115Z,101014.72
2022-09-23T19:42:05.572Z,101004.19
2022-09-23T19:44:07.152Z,101010.66
2022-09-23T19:46:10.217Z,101011.78
2022-09-23T19:48:11.700Z,101010.06
2022-09-23T19:50:13.304Z,101008.53
2022-09-23T19:52:14.746Z,101003.38
2022-09-23T19:54:16.282Z,101002.50
2022-09-23T19:56:18.397Z,101003.53
2022-09-23T19:58:19.956Z,101009.22
2022-09-23T20:00:21.474Z,101009.22
2022-09-23T20:02:24.388Z,101008.38
2022-09-23T20:04:25.891Z,101002.34
2022-09-23T20:06:29.114Z,101005.78
2022-09-23T20:08:30.884Z,101001.16
2022-09-23T20:10:32.357Z,101002.69
2022-09-23T20:12:33.654Z,101008.22
2022-09-23T20:14:35.133Z,101004.06
2022-09-23T20:16:36.873Z,101001.50
2022-09-23T20:18:41.299Z,101002.53
2022-09-23T20:20:42.764Z,100999.06
2022-09-23T20:22:44.230Z,100998.22
2022-09-23T20:24:45.674Z,100994.94
2022-09-23T20:26:47.000Z,100994.84
2022-09-23T20:28:49.857Z,100997.00
2022-09-23T20:30:51.308Z,100996.84
2022-09-23T20:32:52.670Z,100988.22
2022-09-23T20:34:55.530Z,100989.00
2022-09-23T20:36:56.968Z,100983.84
2022-09-23T20:38:59.307Z,100986.59
2022-09-23T20:41:00.769Z,100986.63
2022-09-23T20:43:02.319Z,100983.97
2022-09-23T20:45:04.473Z,100983.19
2022-09-23T20:47:06.222Z,100986.59
2022-09-23T20:49:07.676Z,100983.06
2022-09-23T20:51:10.595Z,100979.59
2022-09-23T20:53:12.202Z,100982.25
2022-09-23T20:55:13.778Z,100981.84
2022-09-23T20:57:15.258Z,100993.88
2022-09-23T20:59:16.764Z,100979.75
2022-09-23T21:01:18.864Z,100985.88
2022-09-23T21:03:20.567Z,100985.88
2022-09-23T21:05:22.142Z,100984.91
2022-09-23T21:07:24.961Z,100979.09
2022-09-23T21:09:27.248Z,100979.09
2022-09-23T21:11:28.751Z,100978.31
2022-09-23T21:13:31.208Z,100975.50
2022-09-23T21:15:34.582Z,100964.97
2022-09-23T21:17:36.044Z,100970.50
2022-09-23T21:19:37.470Z,100972.38
2022-09-23T21:21:38.898Z,100972.38
2022-09-23T21:23:42.241Z,100969.63
2022-09-23T21:25:45.046Z,100967.06
2022-09-23T21:27:51.872Z,100967.06
2022-09-23T21:29:53.337Z,100959.81
2022-09-23T21:31:54.965Z,100961.53
2022-09-23T21:33:58.009Z,100958.88
2022-09-23T21:36:00.131Z,100963.44
2022-09-23T21:38:01.609Z,100954.63
2022-09-23T21:40:05.523Z,100957.16
2022-09-23T21:42:06.994Z,100955.44
2022-09-23T21:44:08.685Z,100960.81
2022-09-23T21:46:12.294Z,100955.44
2022-09-23T21:48:13.878Z,100957.22
2022-09-23T21:50:15.384Z,100956.28
2022-09-23T21:52:16.838Z,100950.88
2022-09-23T21:54:18.299Z,100944.47
2022-09-23T21:56:22.393Z,100959.44
2022-09-23T21:58:23.870Z,100957.00
2022-09-23T22:00:25.501Z,100953.06
2022-09-23T22:02:27.137Z,100947.56
2022-09-23T22:04:28.652Z,100947.56
2022-09-23T22:06:31.082Z,100954.97
2022-09-23T22:08:34.255Z,100950.50
2022-09-23T22:10:36.375Z,100950.56
2022-09-23T22:12:39.170Z,100951.34
2022-09-23T22:14:40.760Z,100948.59
2022-09-23T22:16:42.737Z,100939.03
2022-09-23T22:18:44.163Z,100948.69
2022-09-23T22:20:45.493Z,100948.59
2022-09-23T22:22:46.998Z,100943.66
2022-09-23T22:24:48.641Z,100950.56
2022-09-23T22:26:50.140Z,100946.97
2022-09-23T22:28:53.014Z,100944.28
2022-09-23T22:30:54.513Z,100943.25
2022-09-23T22:32:56.010Z,100941.38
2022-09-23T22:34:57.574Z,100939.13
2022-09-23T22:37:00.308Z,100941.53
2022-09-23T22:39:01.782Z,100940.75
2022-09-23T22:41:03.575Z,100934.41
2022-09-23T22:43:05.198Z,100932.22
2022-09-23T22:45:10.285Z,100925.94
2022-09-23T22:47:11.753Z,100926.88
2022-09-23T22:49:14.270Z,100921.41
2022-09-23T22:51:16.049Z,100915.19
2022-09-23T22:53:17.600Z,100917.78
2022-09-23T22:55:19.054Z,100920.38
2022-09-23T22:57:20.352Z,100917.16
2022-09-23T22:59:21.887Z,100920.38
2022-09-23T23:01:24.725Z,100917.53
2022-09-23T23:03:26.306Z,100922.94
2022-09-23T23:05:27.837Z,100921.72
2022-09-23T23:07:29.328Z,100919.81
2022-09-23T23:09:30.786Z,100921.72
2022-09-23T23:11:32.246Z,100922.03
2022-09-23T23:13:33.553Z,100917.91
2022-09-23T23:15:38.088Z,100919.56
2022-09-23T23:17:40.923Z,100913.63
2022-09-23T23:19:42.355Z,100915.50
2022-09-23T23:21:44.225Z,100908.44
2022-09-23T23:23:47.412Z,100915.34
2022-09-23T23:25:49.011Z,100912.59
2022-09-23T23:27:50.459Z,100907.41
2022-09-23T23:29:51.792Z,100905.00
2022-09-23T23:31:53.280Z,100902.41
2022-09-23T23:33:56.640Z,100906.66
2022-09-23T23:35:58.107Z,100902.00
2022-09-23T23:37:59.680Z,100900.88
2022-09-23T23:40:01.414Z,100881.19
2022-09-23T23:42:03.074Z,100890.56
2022-09-23T23:44:04.945Z,100896.22